Time;durP1;ratioP1;P1;durP2;ratioP2;P2;SDS_P1;SDS_P2;PMS_P1;PMS_P2;Temp;Humidity;BMP_temperature;BMP_pressure;BME280_temperature;BME280_humidity;BME280_pressure;Samples;Min_cycle;Max_cycle;Signal;HPM_P1;HPM_P2
2022/03/27 00:00:28;;;;;;;10.38;4.70;;;;;;;9.13;74.97;103123.16;5017232;28;20025;-88
2022/03/27 00:02:53;;;;;;;11.10;5.25;;;;;;;9.15;75.14;103124.09;5033054;28;20047;-89
2022/03/27 00:05:19;;;;;;;8.77;4.60;;;;;;;9.12;75.27;103126.66;5016620;28;20174;-88
2022/03/27 00:07:44;;;;;;;10.55;5.22;;;;;;;9.12;75.75;103131.03;5033222;28;20132;-88
2022/03/27 00:10:10;;;;;;;9.95;4.80;;;;;;;9.08;76.12;103122.19;5016966;28;20202;-89
2022/03/27 00:12:36;;;;;;;7.75;4.50;;;;;;;9.08;75.52;103122.19;5017075;28;20114;-87
2022/03/27 00:15:04;;;;;;;11.55;4.65;;;;;;;9.03;75.37;103119.44;5024778;28;20057;-89
2022/03/27 00:17:32;;;;;;;10.27;4.90;;;;;;;9.02;75.66;103120.28;5036436;28;20428;-89
2022/03/27 00:19:59;;;;;;;9.38;4.90;;;;;;;8.99;75.70;103122.84;5054349;28;20111;-88
2022/03/27 00:22:26;;;;;;;11.05;4.90;;;;;;;8.94;75.73;103127.16;5053122;28;20073;-88
2022/03/27 00:24:52;;;;;;;9.02;4.65;;;;;;;8.92;76.17;103130.63;5036620;28;20033;-88
2022/03/27 00:27:17;;;;;;;11.43;4.95;;;;;;;8.90;76.61;103130.63;5053139;28;20033;-87
2022/03/27 00:29:43;;;;;;;8.50;4.65;;;;;;;8.86;75.93;103119.94;5052813;28;20049;-88
2022/03/27 00:32:08;;;;;;;7.15;4.72;;;;;;;8.83;76.08;103123.41;5052813;28;20131;-88
2022/03/27 00:34:33;;;;;;;7.43;4.97;;;;;;;8.80;76.48;103126.88;5019872;28;20141;-89
2022/03/27 00:36:59;;;;;;;10.77;5.18;;;;;;;8.76;76.88;103119.72;5052662;28;20080;-88
2022/03/27 00:39:25;;;;;;;11.02;5.15;;;;;;;8.73;77.05;103117.03;5019280;28;20033;-88
2022/03/27 00:41:51;;;;;;;8.60;5.00;;;;;;;8.69;76.67;103117.81;5061384;28;20060;-88
2022/03/27 00:44:17;;;;;;;8.60;5.40;;;;;;;8.71;76.77;103125.78;5033056;28;20085;-88
2022/03/27 00:46:43;;;;;;;11.93;5.97;;;;;;;8.68;75.97;103123.03;5046306;28;20024;-88
2022/03/27 00:49:09;;;;;;;9.10;5.43;;;;;;;8.66;76.72;103120.38;5050508;28;20551;-88
2022/03/27 00:51:35;;;;;;;12.68;5.38;;;;;;;8.63;77.60;103125.59;5025800;28;20025;-88
2022/03/27 00:54:02;;;;;;;10.98;5.65;;;;;;;8.55;77.22;103117.47;5035745;28;20393;-88
2022/03/27 00:56:27;;;;;;;7.30;5.28;;;;;;;8.57;77.08;103125.44;5046815;28;20105;-88
2022/03/27 00:58:53;;;;;;;9.52;5.15;;;;;;;8.53;77.63;103119.22;5048479;28;20460;-88
2022/03/27 01:01:36;;;;;;;9.88;5.20;;;;;;;8.56;76.25;103121.94;5034545;28;20105;-88
2022/03/27 01:04:07;;;;;;;10.15;5.63;;;;;;;8.50;77.01;103120.88;5068241;28;20460;-88
2022/03/27 01:06:36;;;;;;;11.25;5.85;;;;;;;8.49;77.52;103119.13;5051288;28;20033;-88
2022/03/27 01:11:48;;;;;;;13.13;5.68;;;;;;;8.31;77.95;103101.94;5052748;28;20052;-88
2022/03/27 01:14:24;;;;;;;10.82;6.35;;;;;;;8.36;77.81;103118.78;5049796;28;20037;-88
2022/03/27 01:16:58;;;;;;;9.98;6.25;;;;;;;8.29;78.22;103115.97;5068838;28;20098;-88
2022/03/27 01:19:26;;;;;;;8.07;6.13;;;;;;;8.27;78.53;103125.59;5072374;28;20098;-88
2022/03/27 01:21:51;;;;;;;10.02;5.97;;;;;;;8.20;78.33;103111.34;5071173;28;20097;-88
2022/03/27 01:24:17;;;;;;;9.23;5.80;;;;;;;8.18;78.21;103119.25;5038028;28;20045;-88
2022/03/27 01:26:44;;;;;;;9.60;6.22;;;;;;;8.12;77.91;103115.56;5054479;28;20464;-88
2022/03/27 01:29:10;;;;;;;10.52;6.15;;;;;;;8.02;77.26;103106.50;5054561;28;20044;-88
2022/03/27 01:31:35;;;;;;;8.77;5.72;;;;;;;8.06;77.15;103113.66;5037274;28;20043;-88
2022/03/27 01:34:02;;;;;;;10.88;5.72;;;;;;;8.00;77.03;103113.50;5054593;28;20086;-88
2022/03/27 01:36:34;;;;;;;10.40;6.40;;;;;;;7.98;77.88;103117.84;5054313;28;20043;-89
2022/03/27 01:39:02;;;;;;;9.25;5.90;;;;;;;7.96;78.28;103117.81;5054755;28;20042;-89
2022/03/27 01:41:27;;;;;;;8.10;5.82;;;;;;;7.91;78.84;103110.59;5057480;28;20039;-88
2022/03/27 01:43:53;;;;;;;11.38;6.07;;;;;;;7.91;79.20;103115.88;5057467;28;20399;-88
2022/03/27 01:46:19;;;;;;;10.70;6.10;;;;;;;7.90;78.66;103117.63;5092490;28;20030;-88
2022/03/27 01:48:46;;;;;;;9.35;6.22;;;;;;;7.92;80.19;103107.13;5054242;28;20040;-88
2022/03/27 01:51:11;;;;;;;9.82;7.30;;;;;;;7.90;79.72;103114.13;5072176;28;20024;-88
2022/03/27 01:53:38;;;;;;;11.48;6.97;;;;;;;7.82;80.65;103098.09;5037866;28;20385;-88
2022/03/27 01:56:06;;;;;;;11.60;7.72;;;;;;;7.86;81.80;103104.31;5054151;28;20041;-88
2022/03/27 01:58:32;;;;;;;10.88;7.60;;;;;;;7.89;81.52;103104.44;5054010;28;20029;-88
2022/03/27 02:00:58;;;;;;;12.35;8.00;;;;;;;7.92;81.77;103110.66;5024523;28;20039;-87
2022/03/27 02:03:27;;;;;;;12.05;8.18;;;;;;;7.92;81.72;103108.03;5074000;28;20047;-88
2022/03/27 02:05:54;;;;;;;13.02;8.13;;;;;;;7.97;81.74;103106.41;5058548;28;20426;-87
2022/03/27 02:08:21;;;;;;;15.10;10.45;;;;;;;8.00;83.27;103104.69;5091088;28;20113;-88
2022/03/27 02:10:46;;;;;;;13.82;10.20;;;;;;;7.92;83.51;103100.09;5074269;28;20078;-87
2022/03/27 02:13:18;;;;;;;13.25;9.85;;;;;;;8.01;83.52;103110.03;5074100;28;20036;-87
2022/03/27 02:15:46;;;;;;;13.80;8.82;;;;;;;8.03;83.25;103110.91;5060065;28;20484;-87
2022/03/27 02:18:12;;;;;;;15.50;9.85;;;;;;;8.05;82.70;103114.50;5037256;28;20036;-88
2022/03/27 02:20:39;;;;;;;13.90;9.57;;;;;;;8.06;83.42;103110.09;5053770;28;20403;-88
2022/03/27 02:23:07;;;;;;;13.38;10.00;;;;;;;8.01;83.55;103107.38;5053916;28;20032;-87
2022/03/27 02:25:32;;;;;;;14.00;9.98;;;;;;;7.98;83.29;103107.28;5054085;28;20564;-87
2022/03/27 02:27:58;;;;;;;13.23;9.70;;;;;;;7.99;83.96;103106.44;5070463;28;20131;-87
2022/03/27 02:30:23;;;;;;;11.60;8.68;;;;;;;8.07;83.86;103117.19;5071951;28;20036;-87
2022/03/27 02:32:49;;;;;;;13.88;9.93;;;;;;;8.07;83.58;103130.38;5053451;28;20031;-87
2022/03/27 02:35:14;;;;;;;15.57;9.32;;;;;;;8.06;83.85;103118.03;5070751;28;20044;-88
2022/03/27 02:37:40;;;;;;;11.32;8.95;;;;;;;8.04;84.19;103114.47;5053463;28;20468;-87
2022/03/27 02:40:06;;;;;;;12.38;8.18;;;;;;;8.01;84.03;103119.66;5070431;28;20090;-87
2022/03/27 02:42:32;;;;;;;15.00;8.75;;;;;;;7.98;83.71;103115.19;5061166;28;20025;-87
2022/03/27 02:44:57;;;;;;;11.48;8.27;;;;;;;7.96;83.99;103103.69;5071850;28;20499;-87
2022/03/27 02:47:23;;;;;;;14.07;8.32;;;;;;;8.00;83.95;103107.31;5044520;28;20036;-87
2022/03/27 02:49:48;;;;;;;13.80;8.98;;;;;;;7.98;84.23;103109.91;5077379;28;20036;-87
2022/03/27 02:52:14;;;;;;;10.82;8.25;;;;;;;7.96;84.45;103117.81;5060399;28;20021;-87
2022/03/27 02:54:40;;;;;;;12.48;8.70;;;;;;;7.99;84.83;103111.72;5077249;28;20043;-88
2022/03/27 02:57:05;;;;;;;11.68;8.80;;;;;;;7.97;84.23;103109.03;5077048;28;20032;-87
2022/03/27 02:59:31;;;;;;;11.40;8.90;;;;;;;7.98;85.34;103109.91;5073396;28;20041;-87
2022/03/27 03:01:56;;;;;;;10.63;8.70;;;;;;;7.90;84.67;103096.53;5057126;28;20028;-87
2022/03/27 03:04:22;;;;;;;12.23;8.30;;;;;;;8.02;84.81;103114.44;5056888;28;20040;-87
2022/03/27 03:06:48;;;;;;;12.93;9.57;;;;;;;8.05;84.85;103110.97;5073567;28;20047;-88
2022/03/27 03:09:14;;;;;;;13.77;9.45;;;;;;;8.05;85.06;103108.34;5056985;28;20035;-87
2022/03/27 03:11:40;;;;;;;12.85;9.13;;;;;;;8.05;85.01;103113.59;5056531;28;20442;-87
2022/03/27 03:14:06;;;;;;;16.98;9.32;;;;;;;8.04;84.96;103109.19;5057182;28;20043;-87
2022/03/27 03:16:33;;;;;;;11.75;8.82;;;;;;;8.05;83.42;103106.56;5060278;28;20408;-87
2022/03/27 03:18:58;;;;;;;13.77;9.57;;;;;;;8.07;83.88;103099.59;5077140;28;20071;-87
2022/03/27 03:21:24;;;;;;;13.48;9.75;;;;;;;8.09;84.79;103103.19;5076558;28;20072;-87
2022/03/27 03:23:50;;;;;;;13.95;10.55;;;;;;;8.10;84.52;103093.50;5076939;28;20412;-87
2022/03/27 03:26:16;;;;;;;11.73;9.70;;;;;;;8.07;84.77;103094.31;5076533;28;20499;-87
2022/03/27 03:28:41;;;;;;;14.52;10.30;;;;;;;8.10;84.78;103094.38;5076977;28;20036;-87
2022/03/27 03:31:07;;;;;;;13.18;9.73;;;;;;;8.03;84.53;103086.28;5076957;28;20063;-87
2022/03/27 03:33:32;;;;;;;13.05;10.05;;;;;;;8.06;84.55;103091.63;5076724;28;20032;-88
2022/03/27 03:35:58;;;;;;;13.45;10.48;;;;;;;8.04;84.70;103091.63;5060023;28;20054;-87
2022/03/27 03:38:23;;;;;;;12.60;10.50;;;;;;;8.08;84.65;103100.47;5076537;28;20446;-87
2022/03/27 03:40:49;;;;;;;14.05;10.55;;;;;;;8.05;84.65;103093.38;5059245;28;20131;-88
2022/03/27 03:43:15;;;;;;;13.38;10.43;;;;;;;8.07;84.63;103093.44;5063139;28;20119;-87
2022/03/27 03:45:41;;;;;;;13.45;9.60;;;;;;;8.07;84.52;103088.16;5076717;28;20120;-88
2022/03/27 03:48:07;;;;;;;16.02;10.70;;;;;;;8.11;84.46;103090.00;5052767;28;20422;-87
2022/03/27 03:50:35;;;;;;;17.80;10.65;;;;;;;8.13;84.85;103090.94;5093309;28;20040;-87
2022/03/27 03:53:01;;;;;;;13.85;10.35;;;;;;;8.11;84.56;103092.63;5076103;28;20092;-87
2022/03/27 03:55:28;;;;;;;14.40;10.85;;;;;;;8.13;84.42;103089.19;5059459;28;20096;-87
2022/03/27 03:57:54;;;;;;;12.15;9.75;;;;;;;8.16;83.94;103089.28;5076212;28;20032;-87
2022/03/27 04:00:19;;;;;;;13.25;10.32;;;;;;;8.15;83.35;103076.03;5082330;28;20506;-87
2022/03/27 04:02:45;;;;;;;13.07;10.48;;;;;;;8.17;83.82;103084.88;5072578;28;20040;-87
2022/03/27 04:05:10;;;;;;;14.30;10.70;;;;;;;8.18;83.81;103089.28;5056030;28;20499;-88
2022/03/27 04:07:36;;;;;;;16.48;11.18;;;;;;;8.20;83.92;103090.22;5039251;28;20048;-88
2022/03/27 04:10:03;;;;;;;15.00;11.43;;;;;;;8.22;84.41;103096.44;5039471;28;20098;-87
2022/03/27 04:12:29;;;;;;;13.88;11.50;;;;;;;8.21;83.33;103092.03;5039892;28;20170;-87
2022/03/27 04:14:54;;;;;;;15.15;11.40;;;;;;;8.23;83.71;103095.56;5062245;28;20036;-87
2022/03/27 04:17:20;;;;;;;15.10;10.82;;;;;;;8.27;83.63;103096.56;5058915;28;20043;-87
2022/03/27 04:19:45;;;;;;;17.08;11.90;;;;;;;8.27;83.13;103093.91;5076059;28;20376;-88
2022/03/27 04:22:11;;;;;;;15.68;11.63;;;;;;;8.25;82.88;103090.34;5075750;28;20036;-87
2022/03/27 04:24:36;;;;;;;16.10;12.15;;;;;;;8.23;83.13;103098.22;5042629;28;20145;-88
2022/03/27 04:27:02;;;;;;;17.15;12.10;;;;;;;8.20;83.39;103092.88;5075419;28;20036;-87
2022/03/27 04:29:27;;;;;;;17.08;12.65;;;;;;;8.14;83.01;103082.19;5075966;28;20576;-87
2022/03/27 04:31:53;;;;;;;17.08;12.93;;;;;;;8.19;83.15;103091.09;5058623;28;20167;-87
2022/03/27 04:34:18;;;;;;;18.70;13.60;;;;;;;8.16;83.27;103094.56;5075445;28;20024;-87
2022/03/27 04:36:44;;;;;;;19.67;13.40;;;;;;;8.11;83.03;103092.63;5075037;28;20036;-87
2022/03/27 04:39:10;;;;;;;18.13;13.63;;;;;;;8.13;83.61;103101.50;5042300;28;20077;-87
2022/03/27 04:41:35;;;;;;;16.52;12.80;;;;;;;8.13;83.97;103098.84;5037826;28;20436;-87
2022/03/27 04:44:02;;;;;;;17.58;13.52;;;;;;;8.05;83.99;103085.47;5075021;28;20451;-87
2022/03/27 04:46:27;;;;;;;17.27;13.13;;;;;;;8.12;84.15;103097.97;5058634;28;20108;-87
2022/03/27 04:48:53;;;;;;;17.77;13.27;;;;;;;8.15;83.91;103099.78;5041694;28;20040;-88
2022/03/27 04:51:19;;;;;;;19.20;13.60;;;;;;;8.13;84.00;103099.72;5093262;28;20028;-88
2022/03/27 04:53:45;;;;;;;18.30;14.18;;;;;;;8.11;84.08;103097.91;5058297;28;20040;-88
2022/03/27 04:56:10;;;;;;;19.33;13.68;;;;;;;8.11;82.23;103103.19;5074955;28;20050;-87
2022/03/27 04:58:36;;;;;;;20.60;13.85;;;;;;;8.10;82.36;103096.13;5041765;28;20087;-88
2022/03/27 05:01:01;;;;;;;18.95;13.57;;;;;;;8.06;83.34;103097.84;5061548;28;20083;-87
2022/03/27 05:03:27;;;;;;;18.55;14.60;;;;;;;8.03;83.93;103100.38;5093062;28;20454;-88
2022/03/27 05:05:53;;;;;;;21.13;14.48;;;;;;;8.04;83.86;103109.19;5074267;28;20428;-87
2022/03/27 05:08:18;;;;;;;20.65;15.23;;;;;;;7.99;84.59;103111.72;5092696;28;20031;-87
2022/03/27 05:10:44;;;;;;;21.98;15.35;;;;;;;7.95;84.51;103108.09;5058294;28;20514;-88
2022/03/27 05:13:09;;;;;;;19.52;15.23;;;;;;;7.86;84.32;103105.25;5074768;28;20418;-88
2022/03/27 05:15:35;;;;;;;19.90;15.43;;;;;;;7.89;84.02;103107.94;5080366;28;20048;-87
2022/03/27 05:18:01;;;;;;;22.63;14.93;;;;;;;7.87;85.10;103114.94;5054677;28;20517;-87
2022/03/27 05:20:29;;;;;;;19.27;15.05;;;;;;;7.89;85.31;103117.63;5071261;28;20534;-87
2022/03/27 05:22:56;;;;;;;19.30;14.30;;;;;;;7.84;84.78;103106.94;5054309;28;20051;-87
2022/03/27 05:25:22;;;;;;;21.25;15.57;;;;;;;7.89;84.29;103114.97;5055698;28;20093;-88
2022/03/27 05:27:50;;;;;;;18.10;15.23;;;;;;;7.92;84.23;103112.41;5055050;28;20395;-87
2022/03/27 05:30:17;;;;;;;26.60;16.20;;;;;;;7.88;84.15;103111.44;5055459;28;20145;-87
2022/03/27 05:32:43;;;;;;;20.40;14.10;;;;;;;7.89;82.82;103120.25;5073008;28;20444;-87
2022/03/27 05:35:09;;;;;;;22.67;15.85;;;;;;;7.89;83.99;103118.50;5021950;28;20127;-87
2022/03/27 05:37:36;;;;;;;22.02;15.07;;;;;;;7.79;84.33;103105.94;5072348;28;20078;-87
2022/03/27 05:40:04;;;;;;;20.88;14.77;;;;;;;7.81;83.68;103108.59;5072438;28;20551;-87
2022/03/27 05:42:29;;;;;;;19.00;14.45;;;;;;;7.81;83.40;103105.97;5066686;28;20032;-88
2022/03/27 05:44:55;;;;;;;17.90;14.43;;;;;;;7.80;84.51;103112.97;5074627;28;20488;-88
2022/03/27 05:47:20;;;;;;;22.75;15.73;;;;;;;7.81;84.12;103119.16;5092290;28;20039;-86
2022/03/27 05:49:47;;;;;;;24.10;15.88;;;;;;;7.79;84.13;103111.22;5074508;28;20048;-86
2022/03/27 05:52:14;;;;;;;20.85;15.35;;;;;;;7.81;84.03;103116.50;5074052;28;20055;-86
2022/03/27 05:54:40;;;;;;;19.48;15.40;;;;;;;7.79;83.88;103118.22;5074331;28;20475;-87
2022/03/27 05:57:06;;;;;;;20.08;14.52;;;;;;;7.85;83.63;103129.81;5057290;28;20064;-87
2022/03/27 05:59:31;;;;;;;21.35;14.30;;;;;;;7.85;83.46;103135.09;5074286;28;20048;-87
2022/03/27 06:01:57;;;;;;;18.83;12.57;;;;;;;7.81;83.25;103134.97;5067763;28;20036;-87
2022/03/27 06:04:22;;;;;;;15.45;11.45;;;;;;;7.79;83.19;103140.22;5068737;28;20032;-87
2022/03/27 06:06:48;;;;;;;16.95;12.10;;;;;;;7.72;83.10;103139.16;5056523;28;20130;-87
2022/03/27 06:09:13;;;;;;;18.00;12.48;;;;;;;7.68;82.98;103145.19;5052663;28;20069;-87
2022/03/27 06:11:39;;;;;;;17.63;11.65;;;;;;;7.64;83.66;103143.34;5072404;28;20034;-87
2022/03/27 06:14:04;;;;;;;14.57;11.07;;;;;;;7.59;81.99;103141.41;5089157;28;20048;-87
2022/03/27 06:16:30;;;;;;;17.73;12.15;;;;;;;7.61;83.50;103145.88;5069034;28;20080;-87
2022/03/27 06:18:56;;;;;;;16.95;11.93;;;;;;;7.58;81.07;103151.06;5092969;28;20027;-88
2022/03/27 06:21:21;;;;;;;19.45;13.18;;;;;;;7.54;82.77;103158.03;5072488;28;20560;-87
2022/03/27 06:23:47;;;;;;;20.50;13.30;;;;;;;7.49;83.52;103150.81;5061312;28;20564;-87
2022/03/27 06:26:12;;;;;;;20.50;13.38;;;;;;;7.44;83.35;103152.44;5073497;28;20028;-87
2022/03/27 06:28:38;;;;;;;25.70;15.40;;;;;;;7.44;83.75;103157.69;5091714;28;20032;-88
2022/03/27 06:31:04;;;;;;;26.58;15.10;;;;;;;7.43;83.96;103161.19;5045085;28;20048;-87
2022/03/27 06:33:29;;;;;;;25.98;15.50;;;;;;;7.42;84.31;103151.47;5092254;28;20039;-89
2022/03/27 06:35:55;;;;;;;22.08;15.15;;;;;;;7.40;84.28;103153.22;5059932;28;20396;-88
2022/03/27 06:38:21;;;;;;;26.70;16.92;;;;;;;7.41;84.07;103157.63;5077972;28;20528;-88
2022/03/27 06:40:46;;;;;;;32.50;17.60;;;;;;;7.40;84.60;103158.50;5061556;28;20039;-87
2022/03/27 06:43:12;;;;;;;30.10;18.25;;;;;;;7.40;84.03;103159.38;5072832;28;20044;-87
2022/03/27 06:45:39;;;;;;;26.20;17.00;;;;;;;7.40;84.48;103158.50;5053911;28;20031;-88
2022/03/27 06:48:05;;;;;;;29.23;18.02;;;;;;;7.37;84.85;103154.03;5065852;28;20437;-87
2022/03/27 06:50:31;;;;;;;28.35;17.77;;;;;;;7.38;85.33;103147.00;5078661;28;20043;-88
2022/03/27 06:52:57;;;;;;;28.83;17.08;;;;;;;7.39;84.14;103149.66;5078330;28;20490;-87
2022/03/27 06:55:23;;;;;;;34.10;19.98;;;;;;;7.48;84.23;103155.19;5042590;28;20032;-87
2022/03/27 06:57:49;;;;;;;30.85;17.40;;;;;;;7.45;84.02;103151.59;5075181;28;20051;-86
2022/03/27 07:03:03;;;;;;;29.65;16.35;;;;;;;7.51;84.16;103157.91;5059069;28;20498;-88
2022/03/27 07:05:35;;;;;;;22.80;14.68;;;;;;;7.49;82.85;103164.91;5055329;28;20118;-87
2022/03/27 07:08:12;;;;;;;24.80;16.55;;;;;;;7.46;82.98;103164.81;5089058;28;20118;-88
2022/03/27 07:10:38;;;;;;;26.50;15.68;;;;;;;7.45;83.48;103162.16;5042266;28;20086;-88
2022/03/27 07:13:05;;;;;;;26.83;16.48;;;;;;;7.44;83.55;103162.97;5084439;28;20082;-88
2022/03/27 07:15:31;;;;;;;28.58;16.58;;;;;;;7.45;84.13;103159.50;5073231;28;20055;-88
2022/03/27 07:17:57;;;;;;;25.55;15.98;;;;;;;7.43;83.32;103154.19;5092008;28;20089;-87
2022/03/27 07:20:29;;;;;;;27.30;15.35;;;;;;;7.42;83.62;103159.41;5060267;28;20027;-88
2022/03/27 07:22:57;;;;;;;26.50;16.02;;;;;;;7.42;83.12;103151.47;5076016;28;20181;-88
2022/03/27 07:25:24;;;;;;;26.83;16.52;;;;;;;7.53;83.38;103156.22;5059344;28;20568;-87
2022/03/27 07:27:50;;;;;;;26.42;16.33;;;;;;;7.53;82.93;103150.94;5087354;28;20028;-88
2022/03/27 07:30:16;;;;;;;25.27;16.25;;;;;;;7.61;82.59;103159.06;5071138;28;20032;-87
2022/03/27 07:32:42;;;;;;;29.70;16.98;;;;;;;7.63;82.67;103154.72;5057523;28;20042;-88
2022/03/27 07:35:09;;;;;;;27.35;16.83;;;;;;;7.64;82.78;103155.63;5055423;28;20135;-88
2022/03/27 07:37:35;;;;;;;28.75;16.05;;;;;;;7.62;82.65;103150.31;5089377;28;20016;-88
2022/03/27 07:40:03;;;;;;;26.92;16.52;;;;;;;7.65;82.81;103153.03;5067666;28;20040;-88
2022/03/27 07:42:30;;;;;;;27.23;16.80;;;;;;;7.74;82.72;103155.94;5055315;28;20043;-88
2022/03/27 07:44:56;;;;;;;26.23;15.93;;;;;;;7.77;82.06;103155.13;5065524;28;20029;-88
2022/03/27 07:47:21;;;;;;;25.55;15.90;;;;;;;7.75;81.30;103155.06;5053290;28;20115;-88
2022/03/27 07:49:47;;;;;;;23.98;14.65;;;;;;;7.86;81.55;103150.09;5078401;28;20040;-88
2022/03/27 07:52:13;;;;;;;27.90;16.17;;;;;;;7.93;81.69;103157.28;5034827;28;20484;-89
2022/03/27 07:54:39;;;;;;;24.13;14.95;;;;;;;7.92;81.52;103147.59;5076116;28;20074;-88
2022/03/27 07:57:05;;;;;;;26.20;14.98;;;;;;;7.91;80.68;103148.47;5076279;28;20123;-88
2022/03/27 07:59:30;;;;;;;24.88;15.60;;;;;;;8.01;81.17;103162.78;5042032;28;20071;-88
2022/03/27 08:01:56;;;;;;;22.00;14.48;;;;;;;8.02;80.86;103154.00;5044893;28;20070;-88
2022/03/27 08:04:22;;;;;;;25.27;16.67;;;;;;;8.07;80.59;103154.13;5043714;28;20040;-87
2022/03/27 08:06:47;;;;;;;24.42;14.50;;;;;;;8.14;79.79;103159.59;5066186;28;20036;-88
2022/03/27 08:09:14;;;;;;;22.05;14.77;;;;;;;8.17;80.04;103159.66;5081008;28;20043;-88
2022/03/27 08:11:42;;;;;;;20.92;13.73;;;;;;;8.24;78.57;103157.19;5027242;28;20027;-88
2022/03/27 08:14:11;;;;;;;26.77;16.05;;;;;;;8.23;79.68;103161.56;5060218;28;20047;-88
2022/03/27 08:16:37;;;;;;;22.08;14.52;;;;;;;8.21;80.23;103146.53;5077042;28;20054;-88
2022/03/27 08:19:03;;;;;;;23.27;15.35;;;;;;;8.32;79.79;103158.28;5076360;28;20028;-88
2022/03/27 08:21:29;;;;;;;24.42;15.13;;;;;;;8.36;79.04;103157.50;5093499;28;20395;-89
2022/03/27 08:23:55;;;;;;;25.33;15.00;;;;;;;8.44;78.49;103160.38;5095070;28;20034;-89
2022/03/27 08:29:05;;;;;;;22.42;15.52;;;;;;;8.54;78.10;103162.38;5060738;28;20036;-89
2022/03/27 08:31:32;;;;;;;22.60;14.27;;;;;;;8.62;77.89;103171.34;5060933;28;20438;-89
2022/03/27 08:33:59;;;;;;;23.33;14.55;;;;;;;8.58;77.30;103156.28;5044306;28;20028;-89
2022/03/27 08:36:25;;;;;;;21.58;14.98;;;;;;;8.66;76.78;103167.03;5076670;28;20392;-88
2022/03/27 08:38:50;;;;;;;19.50;13.55;;;;;;;8.67;77.50;103160.91;5050512;28;20044;-90
2022/03/27 08:41:16;;;;;;;21.15;14.18;;;;;;;8.72;76.76;103173.34;5087215;28;20115;-89
2022/03/27 08:43:43;;;;;;;20.98;14.23;;;;;;;8.71;76.91;103171.56;5056224;28;20090;-89
2022/03/27 08:46:11;;;;;;;22.15;14.70;;;;;;;8.66;76.95;103167.94;5072821;28;20025;-89
2022/03/27 08:48:37;;;;;;;19.60;13.15;;;;;;;8.73;77.26;103164.56;5055905;28;20067;-89
2022/03/27 08:51:09;;;;;;;22.23;14.05;;;;;;;8.81;76.56;103155.06;5089610;28;20114;-89
2022/03/27 08:53:51;;;;;;;21.45;14.13;;;;;;;8.93;76.59;103158.84;5056298;28;20036;-89
2022/03/27 08:56:18;;;;;;;21.27;14.25;;;;;;;9.04;76.33;103165.25;5068679;28;20032;-90
2022/03/27 08:58:45;;;;;;;20.48;13.48;;;;;;;9.12;75.47;103160.13;5058067;28;20033;-88
2022/03/27 09:01:11;;;;;;;21.42;14.30;;;;;;;9.18;74.81;103163.81;5075803;28;20032;-89
2022/03/27 09:03:37;;;;;;;19.75;13.82;;;;;;;9.26;75.26;103164.84;5071389;28;20381;-89
2022/03/27 09:06:06;;;;;;;19.65;13.25;;;;;;;9.37;73.49;103170.38;5083622;28;20035;-88
2022/03/27 09:08:32;;;;;;;17.77;12.82;;;;;;;9.51;74.99;103170.63;5055743;28;20044;-89
2022/03/27 09:10:58;;;;;;;20.08;14.23;;;;;;;9.64;73.92;103170.03;5055912;28;20047;-89
2022/03/27 09:13:24;;;;;;;18.83;13.23;;;;;;;9.85;72.50;103166.00;5073871;28;20025;-88
2022/03/27 09:16:02;;;;;;;25.95;14.80;;;;;;;10.18;73.46;103167.44;5070253;28;20067;-88
2022/03/27 09:18:45;;;;;;;21.55;14.75;;;;;;;10.51;72.66;103167.16;5076273;28;20093;-88
2022/03/27 09:21:10;;;;;;;17.70;13.52;;;;;;;10.60;69.78;103156.69;5088964;28;20139;-88
2022/03/27 09:23:36;;;;;;;20.55;13.75;;;;;;;10.68;69.43;103159.44;5071469;28;20138;-88
2022/03/27 09:26:07;;;;;;;20.05;14.13;;;;;;;10.85;69.72;103155.25;5073078;28;20036;-88
2022/03/27 09:28:42;;;;;;;19.45;13.80;;;;;;;11.06;68.79;103162.63;5073247;28;20112;-89
2022/03/27 09:31:18;;;;;;;18.35;13.77;;;;;;;11.24;67.75;103154.00;5054657;28;20048;-88
2022/03/27 09:33:49;;;;;;;19.55;13.48;;;;;;;11.40;66.45;103150.69;5065426;28;20128;-88
2022/03/27 09:36:33;;;;;;;18.33;13.52;;;;;;;11.60;67.21;103145.59;5056193;28;20325;-88
2022/03/27 09:39:09;;;;;;;19.60;13.20;;;;;;;11.69;65.77;103144.78;5086838;28;20044;-89
2022/03/27 09:41:36;;;;;;;20.00;12.90;;;;;;;11.76;64.97;103148.41;5062239;28;20122;-88
2022/03/27 09:44:05;;;;;;;19.48;12.77;;;;;;;11.86;64.79;103141.44;5087781;28;20024;-89
2022/03/27 09:46:51;;;;;;;18.50;13.48;;;;;;;12.04;64.70;103129.25;5065527;28;20028;-89
2022/03/27 09:49:20;;;;;;;17.92;12.90;;;;;;;12.13;62.84;103136.38;5082534;28;20135;-89
2022/03/27 09:51:58;;;;;;;18.67;13.60;;;;;;;12.20;63.45;103129.38;5037124;28;20127;-89
2022/03/27 09:54:25;;;;;;;17.40;13.02;;;;;;;12.33;62.51;103128.56;5072463;28;20033;-89
2022/03/27 09:56:51;;;;;;;21.27;13.30;;;;;;;12.36;61.59;103117.09;5054818;28;20420;-89
2022/03/27 09:59:32;;;;;;;18.60;13.32;;;;;;;12.41;62.69;103124.22;5053888;28;20032;-89
2022/03/27 10:02:17;;;;;;;19.10;13.70;;;;;;;12.56;62.38;103120.78;5070902;28;20068;-89
2022/03/27 10:04:55;;;;;;;21.60;13.40;;;;;;;12.73;61.81;103120.84;5053941;28;20769;-89
2022/03/27 10:07:23;;;;;;;16.92;12.93;;;;;;;12.98;61.19;103119.25;5070767;28;20029;-89
2022/03/27 10:09:49;;;;;;;23.67;13.73;;;;;;;13.13;60.21;103111.31;5054319;28;20428;-90
2022/03/27 10:12:16;;;;;;;18.25;14.02;;;;;;;13.17;58.96;103106.88;5061982;28;20097;-89
2022/03/27 10:14:44;;;;;;;18.65;13.25;;;;;;;13.30;59.63;103111.41;5059230;28;20453;-89
2022/03/27 10:17:10;;;;;;;20.90;13.57;;;;;;;13.45;59.23;103107.00;5107614;28;20127;-89
2022/03/27 10:20:08;;;;;;;17.60;13.13;;;;;;;13.58;59.76;103102.59;5074442;28;20059;-89
2022/03/27 10:22:39;;;;;;;17.50;12.98;;;;;;;13.64;57.42;103087.50;5062336;28;20119;-88
2022/03/27 10:25:08;;;;;;;19.08;13.77;;;;;;;13.80;57.39;103099.06;5070818;28;20029;-89
2022/03/27 10:27:36;;;;;;;18.05;13.10;;;;;;;13.79;56.45;103091.97;5074928;28;20138;-89
2022/03/27 10:30:02;;;;;;;16.35;12.40;;;;;;;13.96;57.33;103091.97;5068719;28;20444;-89
2022/03/27 10:32:28;;;;;;;19.67;13.30;;;;;;;14.15;56.26;103084.88;5057838;28;20067;-89
2022/03/27 10:35:31;;;;;;;19.98;12.93;;;;;;;14.39;57.27;103087.50;5055282;28;20557;-89
2022/03/27 10:38:18;;;;;;;17.40;13.13;;;;;;;14.57;55.38;103081.25;5054613;28;20043;-88
2022/03/27 10:40:55;;;;;;;17.40;12.77;;;;;;;14.78;55.81;103074.06;5084971;28;20067;-89
2022/03/27 10:43:42;;;;;;;26.83;13.25;;;;;;;15.03;55.14;103072.19;5060115;28;20032;-89
2022/03/27 10:46:22;;;;;;;17.92;12.30;;;;;;;15.19;53.65;103071.22;5057630;28;20032;-89
2022/03/27 10:48:50;;;;;;;18.02;13.68;;;;;;;15.22;52.15;103065.84;5072411;28;20421;-89
2022/03/27 10:51:24;;;;;;;15.55;12.50;;;;;;;15.41;54.08;103063.09;5075432;28;20024;-89
2022/03/27 10:54:05;;;;;;;16.67;12.65;;;;;;;15.60;53.39;103061.16;5058340;28;20089;-87
2022/03/27 10:56:34;;;;;;;15.55;12.55;;;;;;;15.88;52.22;103067.22;5070853;28;20399;-88
2022/03/27 10:59:08;;;;;;;15.73;11.82;;;;;;;16.04;51.71;103065.28;5064953;28;20110;-88
2022/03/27 11:01:40;;;;;;;18.88;11.40;;;;;;;16.31;51.38;103059.66;5056475;28;20494;-88
2022/03/27 11:04:08;;;;;;;12.98;10.40;;;;;;;16.50;49.65;103059.47;5057061;28;20039;-89
2022/03/27 11:06:39;;;;;;;14.30;11.35;;;;;;;16.62;49.50;103055.78;5058384;28;20044;-87
2022/03/27 11:09:08;;;;;;;16.95;11.00;;;;;;;16.62;47.94;103056.66;5057729;28;20052;-88
2022/03/27 11:11:43;;;;;;;13.57;10.68;;;;;;;16.84;47.73;103060.00;5058251;28;20045;-88
2022/03/27 11:14:09;;;;;;;13.75;10.55;;;;;;;17.13;47.90;103054.22;5039890;28;20032;-87
2022/03/27 11:17:06;;;;;;;13.63;10.85;;;;;;;17.35;48.74;103052.13;5048676;28;20059;-87
2022/03/27 11:19:46;;;;;;;14.05;10.25;;;;;;;17.59;47.77;103045.50;5058862;28;20724;-89
2022/03/27 11:22:47;;;;;;;15.68;10.63;;;;;;;17.70;48.24;103036.38;5088984;28;20047;-88
2022/03/27 11:25:33;;;;;;;;;;;;;;;17.81;49.00;103037.16;5062477;28;20044;-88
2022/03/27 11:28:02;;;;;;;12.07;9.88;;;;;;;17.98;44.39;103036.84;5093856;28;19920;-88
2022/03/27 11:30:28;;;;;;;12.10;9.60;;;;;;;18.14;44.02;103026.72;5077261;28;20024;-88